createdAt,value
2017-10-12T00:02:10.888Z,84.70
2017-10-12T00:04:39.176Z,84.80
2017-10-12T00:07:07.423Z,84.50
2017-10-12T00:09:34.892Z,84.50
2017-10-12T00:12:03.175Z,84.40
2017-10-12T00:14:31.410Z,84.40
2017-10-12T00:16:58.914Z,84.40
2017-10-12T00:19:27.159Z,84.40
2017-10-12T00:21:54.639Z,84.20
2017-10-12T00:24:22.930Z,84.00
2017-10-12T00:26:51.181Z,84.00
2017-10-12T00:29:18.682Z,84.00
2017-10-12T00:31:46.935Z,84.00
2017-10-12T00:34:15.211Z,84.10
2017-10-12T00:36:43.473Z,84.00
2017-10-12T00:39:11.773Z,84.90
2017-10-12T00:41:40.032Z,84.50
2017-10-12T00:44:07.551Z,84.40
2017-10-12T00:46:35.053Z,84.40
2017-10-12T00:49:02.543Z,84.40
2017-10-12T00:51:30.035Z,84.20
2017-10-12T00:53:57.504Z,84.80
2017-10-12T00:56:24.996Z,84.50
2017-10-12T00:58:53.267Z,84.60
2017-10-12T01:01:21.525Z,84.60
2017-10-12T01:03:49.012Z,84.50
2017-10-12T01:06:17.276Z,84.80
2017-10-12T01:08:44.788Z,84.80
2017-10-12T01:11:12.256Z,84.90
2017-10-12T01:13:39.751Z,85.00
2017-10-12T01:16:08.035Z,85.00
2017-10-12T01:18:36.312Z,85.30
2017-10-12T01:21:04.572Z,85.30
2017-10-12T01:23:32.047Z,85.20
2017-10-12T01:26:00.315Z,85.30
2017-10-12T01:28:29.307Z,85.10
2017-10-12T01:30:56.780Z,85.20
2017-10-12T01:33:25.034Z,85.50
2017-10-12T01:35:52.511Z,85.40
2017-10-12T01:38:20.767Z,85.50
2017-10-12T01:40:49.032Z,85.40
2017-10-12T01:43:16.499Z,85.30
2017-10-12T01:45:43.991Z,85.40
2017-10-12T01:48:12.228Z,85.50
2017-10-12T01:50:39.715Z,85.50
2017-10-12T01:53:08.000Z,85.50
2017-10-12T01:55:36.247Z,85.30
2017-10-12T01:58:03.732Z,85.30
2017-10-12T02:00:31.972Z,85.60
2017-10-12T02:02:59.496Z,85.00
2017-10-12T02:05:26.968Z,85.00
2017-10-12T02:07:54.437Z,84.80
2017-10-12T02:10:21.961Z,84.80
2017-10-12T02:12:49.435Z,84.80
2017-10-12T02:15:16.923Z,84.90
2017-10-12T02:17:44.396Z,84.70
2017-10-12T02:20:13.389Z,84.50
2017-10-12T02:22:42.501Z,84.50
2017-10-12T02:25:10.740Z,84.50
2017-10-12T02:27:38.235Z,84.40
2017-10-12T02:30:06.483Z,84.40
2017-10-12T02:32:33.952Z,84.40
2017-10-12T02:35:02.210Z,84.80
2017-10-12T02:37:29.701Z,84.80
2017-10-12T02:39:57.983Z,86.00
2017-10-12T02:42:26.241Z,86.10
2017-10-12T02:44:55.221Z,86.40
2017-10-12T02:47:22.812Z,86.40
2017-10-12T02:49:51.066Z,87.00
2017-10-12T02:52:18.551Z,87.00
2017-10-12T02:54:46.790Z,87.10
2017-10-12T02:57:14.277Z,87.10
2017-10-12T02:59:42.531Z,87.80
2017-10-12T03:02:10.016Z,87.20
2017-10-12T03:04:38.268Z,87.70
2017-10-12T03:07:05.857Z,87.10
2017-10-12T03:09:34.098Z,87.10
2017-10-12T03:12:01.594Z,87.10
2017-10-12T03:14:29.835Z,87.20
2017-10-12T03:16:57.335Z,87.20
2017-10-12T03:19:25.576Z,87.20
2017-10-12T03:21:53.068Z,87.20
2017-10-12T03:24:21.319Z,87.30
2017-10-12T03:26:49.568Z,87.30
2017-10-12T03:29:17.055Z,87.30
2017-10-12T03:31:45.314Z,87.40
2017-10-12T03:34:12.796Z,87.40
2017-10-12T03:36:41.066Z,87.60
2017-10-12T03:39:10.051Z,87.70
2017-10-12T03:41:37.552Z,87.70
2017-10-12T03:44:05.018Z,87.80
2017-10-12T03:46:32.483Z,88.00
2017-10-12T03:48:59.975Z,88.10
2017-10-12T03:51:27.498Z,88.20
2017-10-12T03:53:55.012Z,88.30
2017-10-12T03:56:22.487Z,88.40
2017-10-12T03:58:50.752Z,88.70
2017-10-12T04:01:19.007Z,88.80
2017-10-12T04:03:46.492Z,88.80
2017-10-12T04:06:14.746Z,89.40
2017-10-12T04:08:42.263Z,89.40
2017-10-12T04:11:09.741Z,89.70
2017-10-12T04:13:37.220Z,89.90
2017-10-12T04:16:04.711Z,90.00
2017-10-12T04:18:32.968Z,90.10
2017-10-12T04:21:01.203Z,90.10
2017-10-12T04:23:28.671Z,90.10
2017-10-12T04:25:56.158Z,90.20
2017-10-12T04:28:25.148Z,90.50
2017-10-12T04:30:52.647Z,90.50
2017-10-12T04:33:20.123Z,90.50
2017-10-12T04:35:47.596Z,90.50
2017-10-12T04:38:15.084Z,90.50
2017-10-12T04:40:42.550Z,90.60
2017-10-12T04:43:10.823Z,90.60
2017-10-12T04:45:39.072Z,90.60
2017-10-12T04:48:06.557Z,90.50
2017-10-12T04:50:34.811Z,90.70
2017-10-12T04:53:02.301Z,90.40
2017-10-12T04:55:30.560Z,90.40
2017-10-12T04:57:59.559Z,90.30
2017-10-12T05:00:27.034Z,90.30
2017-10-12T05:02:55.318Z,90.20
2017-10-12T05:05:22.804Z,90.20
2017-10-12T05:07:50.300Z,90.20
2017-10-12T05:10:17.784Z,90.20
2017-10-12T05:12:46.036Z,89.80
2017-10-12T05:15:13.519Z,89.90
2017-10-12T05:17:41.752Z,89.30
2017-10-12T05:20:10.282Z,89.20
2017-10-12T05:22:38.517Z,89.10
2017-10-12T05:25:06.005Z,89.00
2017-10-12T05:27:34.267Z,88.90
2017-10-12T05:30:01.745Z,88.80
2017-10-12T05:32:29.994Z,88.80
2017-10-12T05:34:57.485Z,88.80
2017-10-12T05:37:25.719Z,88.80
2017-10-12T05:39:53.218Z,88.70
2017-10-12T05:42:21.523Z,88.90
2017-10-12T05:44:49.065Z,88.90
2017-10-12T05:47:17.256Z,88.80
2017-10-12T05:49:44.785Z,88.70
2017-10-12T05:52:13.064Z,88.70
2017-10-12T05:54:41.325Z,88.10
2017-10-12T07:28:56.488Z,83.10
2017-10-12T07:31:23.987Z,83.10
2017-10-12T07:33:51.476Z,83.30
2017-10-12T07:36:18.955Z,83.30
2017-10-12T07:38:46.455Z,82.80
2017-10-12T07:41:13.924Z,83.20
2017-10-12T07:43:41.420Z,82.60
2017-10-12T07:46:08.904Z,82.60
2017-10-12T07:48:36.379Z,82.50
2017-10-12T07:51:03.875Z,82.50
2017-10-12T07:53:32.126Z,81.70
2017-10-12T07:55:59.630Z,81.70
2017-10-12T07:58:27.148Z,81.50
2017-10-12T08:00:54.634Z,81.30
2017-10-12T08:03:22.209Z,80.40
2017-10-12T08:05:49.684Z,80.20
2017-10-12T08:08:17.187Z,79.50
2017-10-12T08:10:45.444Z,78.80
2017-10-12T08:13:12.923Z,78.70
2017-10-12T08:15:41.191Z,78.60
2017-10-12T08:18:08.663Z,78.50
2017-10-12T08:20:36.200Z,79.00
2017-10-12T08:23:03.683Z,78.70
2017-10-12T08:25:31.925Z,77.70
2017-10-12T08:27:59.416Z,77.60
2017-10-12T08:30:27.679Z,78.60
2017-10-12T08:32:55.176Z,78.50
2017-10-12T08:35:22.708Z,78.30
2017-10-12T08:37:50.952Z,77.10
2017-10-12T08:40:18.449Z,77.00
2017-10-12T08:42:46.692Z,76.00
2017-10-12T08:45:14.209Z,76.00
2017-10-12T08:47:41.743Z,75.90
2017-10-12T08:50:09.994Z,75.80
2017-10-12T08:52:38.983Z,74.70
2017-10-12T08:55:07.969Z,73.90
2017-10-12T08:57:35.465Z,73.90
2017-10-12T09:00:03.716Z,74.20
2017-10-12T09:02:31.957Z,73.40
2017-10-12T09:04:59.508Z,73.40
2017-10-12T09:07:27.005Z,73.70
2017-10-12T09:09:55.282Z,71.40
2017-10-12T09:12:23.532Z,71.30
2017-10-12T09:14:51.015Z,71.30
2017-10-12T09:17:18.527Z,72.20
2017-10-12T09:19:46.004Z,71.70
2017-10-12T09:22:13.504Z,71.50
2017-10-12T09:24:41.005Z,70.10
2017-10-12T09:27:09.285Z,70.60
2017-10-12T09:29:36.918Z,70.80
2017-10-12T09:32:05.193Z,69.60
2017-10-12T09:34:33.584Z,69.50
2017-10-12T09:37:01.840Z,70.20
2017-10-12T09:39:30.119Z,70.00
2017-10-12T09:41:58.432Z,69.10
2017-10-12T09:44:25.909Z,69.10
2017-10-12T09:46:53.421Z,66.60
2017-10-12T09:49:21.663Z,67.90
2017-10-12T09:51:49.149Z,67.70
2017-10-12T09:54:17.422Z,68.00
2017-10-12T09:56:45.685Z,67.80
2017-10-12T09:59:13.239Z,67.80
2017-10-12T10:01:40.726Z,68.00
2017-10-12T10:04:09.033Z,66.80
2017-10-12T10:06:36.571Z,66.70
2017-10-12T10:09:04.816Z,65.60
2017-10-12T11:47:17.712Z,59.30
2017-10-12T11:49:45.982Z,59.20
2017-10-12T11:52:13.460Z,59.10
2017-10-12T11:54:40.932Z,59.80
2017-10-12T11:57:08.431Z,60.10
2017-10-12T11:59:35.916Z,60.60
2017-10-12T12:02:04.192Z,60.00
2017-10-12T12:04:32.444Z,59.10
2017-10-12T12:06:59.939Z,59.00
2017-10-12T12:09:28.182Z,58.70
2017-10-12T12:11:56.688Z,58.70
2017-10-12T12:14:24.953Z,58.90
2017-10-12T12:16:52.438Z,58.90
2017-10-12T12:19:20.687Z,57.70
2017-10-12T12:21:48.161Z,57.60
2017-10-12T12:24:16.434Z,57.90
2017-10-12T12:26:44.739Z,57.70
2017-10-12T12:29:12.206Z,57.70
2017-10-12T12:31:39.742Z,58.20
2017-10-12T12:34:07.983Z,59.00
2017-10-12T12:36:35.580Z,59.00
2017-10-12T12:39:03.825Z,58.70
2017-10-12T12:41:31.332Z,58.60
2017-10-12T12:43:58.801Z,58.60
2017-10-12T12:46:26.297Z,58.70
2017-10-12T12:48:53.790Z,58.60
2017-10-12T12:51:22.041Z,58.40
2017-10-12T12:53:50.307Z,57.80
2017-10-12T12:56:17.780Z,57.80
2017-10-12T12:58:46.058Z,57.00
2017-10-12T13:01:14.343Z,57.40
2017-10-12T13:03:42.580Z,57.50
2017-10-12T13:06:10.088Z,57.50
2017-10-12T13:08:38.320Z,56.70
2017-10-12T13:11:05.823Z,56.60
2017-10-12T13:13:34.073Z,57.20
2017-10-12T13:16:01.572Z,57.20
2017-10-12T13:18:29.054Z,57.50
2017-10-12T13:20:56.527Z,57.10
2017-10-12T13:23:24.055Z,57.30
2017-10-12T13:25:51.534Z,58.00
2017-10-12T13:28:19.016Z,58.20
2017-10-12T13:30:46.493Z,57.70
2017-10-12T13:33:14.771Z,55.60
2017-10-12T13:35:43.007Z,55.80
2017-10-12T13:38:10.487Z,55.80
2017-10-12T13:40:38.004Z,55.80
2017-10-12T13:43:05.502Z,56.00
2017-10-12T13:45:33.008Z,54.90
2017-10-12T13:48:00.544Z,54.60
2017-10-12T13:50:28.822Z,54.00
2017-10-12T13:52:57.063Z,54.00
2017-10-12T13:55:24.552Z,53.90
2017-10-12T13:57:52.816Z,54.00
2017-10-12T14:00:20.351Z,54.00
2017-10-12T14:02:47.854Z,54.60
2017-10-12T14:05:16.083Z,53.60
2017-10-12T14:07:43.587Z,53.60
2017-10-12T14:10:11.864Z,52.90
2017-10-12T14:12:40.116Z,52.90
2017-10-12T14:15:07.611Z,52.90
2017-10-12T14:17:35.852Z,53.80
2017-10-12T14:20:04.164Z,54.10
2017-10-12T14:22:32.424Z,54.20
2017-10-12T14:25:00.708Z,54.90
2017-10-12T14:27:28.223Z,54.60
2017-10-12T14:29:55.695Z,55.50
2017-10-12T14:32:23.222Z,56.20
2017-10-12T14:34:50.705Z,56.60
2017-10-12T14:37:18.183Z,56.80
2017-10-12T14:39:45.683Z,57.40
2017-10-12T14:42:13.153Z,57.40
2017-10-12T14:44:40.664Z,58.00
2017-10-12T14:47:09.860Z,58.10
2017-10-12T14:49:37.331Z,58.00
2017-10-12T14:52:05.601Z,59.10
2017-10-12T14:54:33.849Z,59.50
2017-10-12T14:57:01.352Z,59.40
2017-10-12T14:59:28.838Z,60.10
2017-10-12T15:01:56.323Z,60.20
2017-10-12T15:04:23.820Z,60.10
2017-10-12T15:06:52.061Z,60.00
2017-10-12T15:09:19.582Z,60.00
2017-10-12T15:11:47.072Z,60.20
2017-10-12T15:14:14.539Z,59.90
2017-10-12T15:16:42.035Z,59.30
2017-10-12T15:19:10.292Z,59.80
2017-10-12T15:21:37.764Z,59.70
2017-10-12T15:24:06.008Z,60.40
2017-10-12T15:26:34.312Z,59.80
2017-10-12T15:29:02.589Z,60.40
2017-10-12T15:31:30.839Z,60.40
2017-10-12T15:33:58.355Z,60.40
2017-10-12T15:36:25.988Z,60.60
2017-10-12T15:38:54.230Z,61.60
2017-10-12T15:41:21.713Z,61.50
2017-10-12T15:43:49.987Z,62.00
2017-10-12T15:46:17.459Z,62.00
2017-10-12T15:48:45.053Z,63.30
2017-10-12T15:51:12.527Z,62.90
2017-10-12T15:53:40.065Z,63.20
2017-10-12T15:56:07.561Z,63.80
2017-10-12T15:58:35.039Z,63.80
2017-10-12T16:01:03.285Z,64.40
2017-10-12T16:03:30.792Z,63.70
2017-10-12T16:05:59.035Z,63.70
2017-10-12T16:08:26.525Z,63.70
2017-10-12T16:10:54.844Z,64.60
2017-10-12T16:13:22.320Z,64.60
2017-10-12T16:15:49.795Z,64.90
2017-10-12T16:18:18.812Z,65.20
2017-10-12T16:20:47.059Z,65.50
2017-10-12T16:23:14.527Z,66.20
2017-10-12T16:25:42.016Z,66.00
2017-10-12T16:28:09.519Z,66.20
2017-10-12T16:30:36.992Z,66.40
2017-10-12T16:35:32.037Z,67.20
2017-10-12T16:38:00.345Z,67.50
2017-10-12T16:40:27.852Z,67.30
2017-10-12T16:42:56.133Z,68.10
2017-10-12T16:45:24.376Z,68.10
2017-10-12T16:47:51.899Z,68.10
2017-10-12T16:52:46.887Z,69.10
2017-10-12T16:55:15.187Z,68.80
2017-10-12T16:57:43.427Z,69.00
2017-10-12T17:00:10.943Z,69.00
2017-10-12T17:02:38.503Z,70.40
2017-10-12T17:05:06.009Z,69.70
2017-10-12T17:07:35.061Z,70.00
2017-10-12T17:10:02.546Z,69.90
2017-10-12T17:12:30.049Z,70.60
2017-10-12T17:14:58.284Z,71.60
2017-10-12T17:17:25.763Z,71.60
2017-10-12T17:19:53.247Z,71.70
2017-10-12T17:22:21.503Z,70.80
2017-10-12T17:24:49.767Z,71.80
2017-10-12T17:27:18.028Z,71.30
2017-10-12T17:29:45.511Z,71.20
2017-10-12T17:32:13.016Z,72.00
2017-10-12T17:34:40.495Z,73.00
2017-10-12T17:37:07.987Z,71.80
2017-10-12T17:39:36.235Z,72.80
2017-10-12T17:42:03.728Z,72.10
2017-10-12T17:44:31.995Z,73.50
2017-10-12T17:47:00.252Z,74.20
2017-10-12T17:49:27.747Z,74.20
2017-10-12T17:51:55.992Z,74.50
2017-10-12T17:54:38.482Z,74.30
2017-10-12T17:56:51.069Z,74.80
2017-10-12T17:59:18.560Z,73.50
2017-10-12T18:01:46.052Z,74.40
2017-10-12T18:06:41.863Z,74.80
2017-10-12T18:09:09.365Z,75.00
2017-10-12T18:11:37.659Z,74.70
2017-10-12T18:14:05.169Z,74.50
2017-10-12T18:16:32.651Z,75.20
2017-10-12T18:19:00.910Z,75.20
2017-10-12T18:21:29.172Z,76.00
2017-10-12T18:23:56.698Z,75.90
2017-10-12T18:26:24.181Z,75.80
2017-10-12T18:28:51.684Z,75.90
2017-10-12T18:31:19.923Z,76.40
2017-10-12T18:33:47.463Z,76.40
2017-10-12T18:36:14.960Z,76.00
2017-10-12T18:38:43.215Z,77.60
2017-10-12T18:41:10.704Z,76.90
2017-10-12T18:43:38.940Z,76.90
2017-10-12T18:46:06.435Z,76.80
2017-10-12T18:48:34.671Z,77.60
2017-10-12T18:51:02.144Z,77.50
2017-10-12T18:53:30.417Z,78.50
2017-10-12T18:55:57.891Z,77.70
2017-10-12T18:58:26.196Z,77.70
2017-10-12T19:00:54.439Z,77.90
2017-10-12T19:03:21.988Z,77.90
2017-10-12T19:05:49.483Z,78.10
2017-10-12T19:08:17.761Z,78.30
2017-10-12T19:10:46.053Z,78.80
2017-10-12T19:13:13.570Z,78.70
2017-10-12T19:15:41.065Z,78.80
2017-10-12T19:18:08.565Z,78.80
2017-10-12T19:20:36.088Z,78.70
2017-10-12T19:23:03.661Z,78.90
2017-10-12T19:25:31.159Z,79.20
2017-10-12T19:27:58.656Z,79.10
2017-10-12T19:30:26.895Z,78.80
2017-10-12T19:32:55.175Z,80.00
2017-10-12T19:35:22.653Z,79.40
2017-10-12T19:37:50.935Z,79.50
2017-10-12T19:40:19.179Z,80.00
2017-10-12T19:42:46.684Z,79.90
2017-10-12T19:45:14.193Z,80.10
2017-10-12T19:47:41.684Z,79.20
2017-10-12T19:50:09.947Z,79.10
2017-10-12T19:52:38.210Z,78.90
2017-10-12T19:55:07.263Z,78.90
2017-10-12T19:57:34.753Z,78.90
2017-10-12T20:00:03.795Z,78.80
2017-10-12T20:02:32.065Z,78.90
2017-10-12T20:04:59.569Z,78.90
2017-10-12T20:07:27.074Z,78.90
2017-10-12T20:09:54.588Z,78.90
2017-10-12T20:12:22.087Z,79.10
2017-10-12T20:14:51.084Z,79.30
2017-10-12T20:17:19.339Z,79.40
2017-10-12T20:19:46.865Z,79.40
2017-10-12T20:22:14.348Z,79.50
2017-10-12T20:24:41.839Z,79.70
2017-10-12T20:27:10.091Z,80.00
2017-10-12T20:29:37.610Z,79.90
2017-10-12T20:32:05.085Z,80.00
2017-10-12T20:34:32.564Z,80.20
2017-10-12T20:37:00.156Z,80.70
2017-10-12T20:39:28.465Z,80.80
2017-10-12T20:44:24.505Z,80.40
2017-10-12T20:46:52.027Z,80.70
2017-10-12T20:49:20.277Z,80.70
2017-10-12T20:51:47.761Z,80.60
2017-10-12T20:54:16.043Z,81.50
2017-10-12T20:56:44.295Z,81.30
2017-10-12T20:59:11.805Z,81.80
2017-10-12T21:01:39.285Z,81.30
2017-10-12T21:04:06.840Z,81.40
2017-10-12T21:06:34.336Z,81.40
2017-10-12T21:09:01.811Z,81.50
2017-10-12T21:11:29.328Z,81.30
2017-10-12T21:13:56.814Z,81.60
2017-10-12T21:16:25.301Z,81.80
2017-10-12T21:18:52.780Z,81.60
2017-10-12T21:21:21.025Z,81.90
2017-10-12T21:23:48.586Z,81.90
2017-10-12T21:26:16.084Z,81.90
2017-10-12T21:28:43.591Z,82.10
2017-10-12T21:31:11.075Z,82.20
2017-10-12T21:33:39.353Z,82.40
2017-10-12T21:36:07.613Z,82.50
2017-10-12T21:38:35.092Z,82.50
2017-10-12T21:41:03.355Z,82.70
2017-10-12T21:43:30.839Z,82.70
2017-10-12T21:45:59.094Z,83.30
2017-10-12T21:48:26.580Z,83.20
2017-10-12T21:50:54.154Z,83.30
2017-10-12T21:53:21.651Z,83.80
2017-10-12T21:55:49.156Z,84.10
2017-10-12T21:58:16.706Z,84.50
2017-10-12T22:00:44.215Z,84.40
2017-10-12T22:03:11.691Z,84.70
2017-10-12T22:05:39.276Z,84.70
2017-10-12T22:08:07.519Z,84.80
2017-10-12T22:10:35.004Z,84.70
2017-10-12T22:13:02.481Z,85.00
2017-10-12T22:15:30.830Z,85.30
2017-10-12T22:17:58.310Z,85.20
2017-10-12T22:20:26.556Z,84.80
2017-10-12T22:22:54.040Z,84.70
2017-10-12T22:25:21.542Z,84.80
2017-10-12T22:27:49.036Z,84.60
2017-10-12T22:30:16.517Z,84.80
2017-10-12T22:32:44.788Z,84.50
2017-10-12T22:35:13.778Z,84.70
2017-10-12T22:37:41.256Z,84.60
2017-10-12T22:40:09.535Z,84.60
2017-10-12T22:42:37.808Z,84.50
2017-10-12T22:45:05.318Z,84.50
2017-10-12T22:47:32.791Z,84.60
2017-10-12T22:50:00.304Z,84.80
2017-10-12T22:52:27.799Z,84.70
2017-10-12T22:54:55.298Z,84.70
2017-10-12T22:57:23.581Z,85.00
2017-10-12T22:59:51.855Z,85.40
2017-10-12T23:02:20.097Z,85.30
2017-10-12T23:04:47.600Z,85.30
2017-10-12T23:07:15.076Z,85.00
2017-10-12T23:09:42.563Z,85.10
2017-10-12T23:12:10.197Z,85.70
2017-10-12T23:14:37.724Z,85.50
2017-10-12T23:17:05.984Z,85.60
2017-10-12T23:19:34.740Z,85.50
2017-10-12T23:22:02.296Z,85.60
2017-10-12T23:24:29.794Z,85.60
2017-10-12T23:26:58.078Z,85.60
2017-10-12T23:29:26.330Z,85.70
2017-10-12T23:31:53.843Z,85.70
2017-10-12T23:34:21.322Z,85.80
2017-10-12T23:36:48.839Z,85.90
2017-10-12T23:39:17.091Z,85.90
2017-10-12T23:41:45.369Z,86.00
2017-10-12T23:44:13.636Z,85.90
2017-10-12T23:46:41.110Z,85.70
2017-10-12T23:49:09.381Z,85.30
2017-10-12T23:51:38.256Z,85.60
2017-10-12T23:54:05.732Z,85.30
2017-10-12T23:56:34.740Z,85.30
